Time;durP1;ratioP1;P1;durP2;ratioP2;P2;SDS_P1;SDS_P2;PMS_P1;PMS_P2;Temp;Humidity;BMP_temperature;BMP_pressure;BME280_temperature;BME280_humidity;BME280_pressure;Samples;Min_cycle;Max_cycle;Signal;HPM_P1;HPM_P2
2022/08/28 00:00:00;;;;;;;12.13;2.45;;;42.90;36.90;;;;;;5047543;28;20080;-66
2022/08/28 00:02:26;;;;;;;14.25;2.60;;;42.90;35.70;;;;;;5031094;28;20049;-68
2022/08/28 00:04:52;;;;;;;77.53;7.10;;;42.80;36.00;;;;;;5047780;28;20141;-68
2022/08/28 00:07:19;;;;;;;93.13;7.57;;;42.70;36.90;;;;;;5031555;28;20095;-73
2022/08/28 00:09:45;;;;;;;19.50;2.40;;;42.70;36.70;;;;;;5047528;28;20052;-66
2022/08/28 00:12:11;;;;;;;14.98;2.30;;;42.60;36.60;;;;;;5048719;28;20523;-67
2022/08/28 00:14:38;;;;;;;93.32;3.88;;;42.60;36.50;;;;;;5047111;28;20126;-67
2022/08/28 00:17:05;;;;;;;14.05;2.35;;;42.60;36.70;;;;;;5047719;28;20047;-65
2022/08/28 00:19:33;;;;;;;12.13;2.67;;;42.60;36.20;;;;;;5051225;28;20049;-66
2022/08/28 00:34:01;;;;;;;;;;;42.50;36.00;;;;;;5146540;27;20518;-65
2022/08/28 00:36:29;;;;;;;14.13;2.58;;;42.50;36.60;;;;;;5128387;27;19933;-63
2022/08/28 00:38:59;;;;;;;9.40;2.65;;;42.30;36.90;;;;;;5127107;27;20041;-61
2022/08/28 00:41:30;;;;;;;11.10;2.72;;;42.30;36.80;;;;;;5129244;27;20080;-63
2022/08/28 00:44:24;;;;;;;66.63;6.50;;;42.20;36.40;;;;;;5127535;27;20170;-63
2022/08/28 00:46:52;;;;;;;5.53;2.33;;;42.20;36.80;;;;;;5127609;27;20044;-66
2022/08/28 00:49:48;;;;;;;11.13;2.25;;;42.00;36.80;;;;;;5145011;27;20051;-62
2022/08/28 00:52:16;;;;;;;10.23;2.63;;;42.00;38.60;;;;;;5125341;27;20061;-62
2022/08/28 00:54:47;;;;;;;11.80;2.83;;;41.90;39.20;;;;;;5128591;27;20059;-61
2022/08/28 00:57:24;;;;;;;12.30;2.75;;;41.80;38.90;;;;;;5143964;27;20054;-62
2022/08/28 00:59:51;;;;;;;12.35;2.47;;;41.80;39.40;;;;;;5109684;27;20045;-62
2022/08/28 01:02:18;;;;;;;28.15;2.67;;;41.70;39.80;;;;;;5109540;27;20532;-62
2022/08/28 01:04:47;;;;;;;23.13;2.90;;;41.60;40.50;;;;;;5127805;27;20064;-62
2022/08/28 01:07:13;;;;;;;34.35;3.83;;;41.50;42.70;;;;;;5145137;27;20540;-65
2022/08/28 01:09:44;;;;;;;33.65;3.97;;;41.40;41.90;;;;;;5126740;27;20056;-60
2022/08/28 01:12:15;;;;;;;53.72;4.47;;;41.20;42.60;;;;;;5145272;27;21446;-67
2022/08/28 01:14:47;;;;;;;46.50;5.00;;;41.10;43.30;;;;;;5125612;27;20134;-61
2022/08/28 01:17:17;;;;;;;53.75;4.72;;;40.90;43.80;;;;;;5135419;27;20064;-62
2022/08/28 01:20:11;;;;;;;38.15;4.25;;;40.80;44.30;;;;;;5145177;27;20087;-62
2022/08/28 01:22:45;;;;;;;70.65;6.78;;;40.60;44.80;;;;;;5140617;27;20076;-62
2022/08/28 01:25:15;;;;;;;45.83;5.63;;;40.50;45.10;;;;;;5103009;28;20055;-62
2022/08/28 01:27:42;;;;;;;43.30;5.10;;;40.30;45.30;;;;;;5105819;28;20057;-62
2022/08/28 01:30:15;;;;;;;47.35;5.75;;;40.20;45.60;;;;;;5105316;28;20073;-63
2022/08/28 01:32:46;;;;;;;53.80;7.30;;;40.00;45.90;;;;;;5101649;28;20103;-63
2022/08/28 01:35:16;;;;;;;43.72;6.15;;;39.90;46.00;;;;;;5077311;28;20059;-65
2022/08/28 01:37:43;;;;;;;44.30;7.93;;;39.80;46.20;;;;;;5092768;28;20064;-63
2022/08/28 01:40:11;;;;;;;57.03;6.78;;;39.70;46.30;;;;;;5092353;28;20477;-64
2022/08/28 01:42:40;;;;;;;49.13;5.38;;;39.60;46.60;;;;;;5076442;28;20080;-62
2022/08/28 01:45:10;;;;;;;41.28;4.72;;;39.50;46.50;;;;;;5093147;28;20060;-63
2022/08/28 01:47:37;;;;;;;41.20;5.22;;;39.50;46.60;;;;;;5092527;28;20096;-63
2022/08/28 01:50:06;;;;;;;37.08;4.53;;;39.40;47.10;;;;;;5092673;28;20059;-60
2022/08/28 01:52:33;;;;;;;39.55;4.40;;;39.30;47.30;;;;;;5127032;27;20061;-62
2022/08/28 01:54:59;;;;;;;57.00;6.25;;;39.20;47.30;;;;;;5076201;28;20080;-63
2022/08/28 01:57:26;;;;;;;37.17;5.82;;;39.10;47.40;;;;;;5074574;28;20071;-63
2022/08/28 01:59:53;;;;;;;33.35;5.85;;;39.00;47.60;;;;;;5091518;28;20137;-63
2022/08/28 02:02:20;;;;;;;35.15;4.25;;;38.90;47.80;;;;;;5091502;28;20094;-62
2022/08/28 02:04:46;;;;;;;31.05;4.95;;;38.90;48.10;;;;;;5075131;28;20110;-62
2022/08/28 02:07:13;;;;;;;35.30;4.13;;;38.90;48.50;;;;;;5110344;28;20073;-63
2022/08/28 02:09:40;;;;;;;37.33;4.25;;;38.70;48.80;;;;;;5092088;28;20124;-65
2022/08/28 02:12:06;;;;;;;34.35;4.78;;;38.60;49.00;;;;;;5109862;28;20538;-62
2022/08/28 02:14:33;;;;;;;35.03;6.10;;;38.60;49.40;;;;;;5089979;28;20176;-63
2022/08/28 02:16:59;;;;;;;32.17;5.93;;;38.50;49.50;;;;;;5090100;28;20082;-62
2022/08/28 02:19:25;;;;;;;35.83;5.40;;;38.40;49.70;;;;;;5090161;28;20069;-61
2022/08/28 02:21:52;;;;;;;38.20;5.97;;;38.30;49.80;;;;;;5090061;28;20094;-65
2022/08/28 02:24:19;;;;;;;28.83;5.82;;;38.30;50.00;;;;;;5090131;28;20120;-64
2022/08/28 02:26:45;;;;;;;28.98;6.03;;;38.20;50.20;;;;;;5088657;28;21459;-66
2022/08/28 02:29:12;;;;;;;26.23;5.82;;;38.10;50.40;;;;;;5106568;27;20108;-63
2022/08/28 02:31:38;;;;;;;30.65;5.57;;;38.10;50.50;;;;;;5089824;28;20079;-66
2022/08/28 02:34:05;;;;;;;33.47;7.60;;;38.00;50.00;;;;;;5089303;28;20075;-62
2022/08/28 02:36:32;;;;;;;39.92;8.68;;;37.90;50.10;;;;;;5105870;28;20067;-64
2022/08/28 02:38:59;;;;;;;37.13;9.15;;;37.90;50.10;;;;;;5108078;28;20071;-66
2022/08/28 02:41:25;;;;;;;37.17;9.15;;;37.80;50.10;;;;;;5091076;28;20082;-63
2022/08/28 02:43:52;;;;;;;39.67;8.68;;;37.80;50.00;;;;;;5088253;28;20075;-65
2022/08/28 02:46:18;;;;;;;33.55;7.97;;;37.70;49.60;;;;;;5100981;28;20063;-63
2022/08/28 02:48:44;;;;;;;41.47;7.20;;;37.60;50.30;;;;;;5089711;28;20112;-64
2022/08/28 02:51:12;;;;;;;19.73;6.20;;;37.60;50.00;;;;;;5108482;28;20155;-63
2022/08/28 02:53:40;;;;;;;31.73;5.82;;;37.60;50.00;;;;;;5091059;28;20161;-64
2022/08/28 02:56:08;;;;;;;26.60;5.60;;;37.50;50.60;;;;;;5090386;28;20071;-67
2022/08/28 02:58:35;;;;;;;21.08;4.03;;;37.40;50.90;;;;;;5107072;28;20079;-64
2022/08/28 03:01:04;;;;;;;15.70;3.38;;;37.40;51.10;;;;;;5090858;28;20071;-65
2022/08/28 03:03:31;;;;;;;10.90;3.20;;;37.40;51.60;;;;;;5085422;28;20570;-65
2022/08/28 03:05:59;;;;;;;14.50;3.20;;;37.40;52.20;;;;;;5107827;28;20071;-63
2022/08/28 03:08:27;;;;;;;14.98;3.40;;;37.30;51.90;;;;;;5085541;28;20069;-63
2022/08/28 03:10:53;;;;;;;12.73;2.80;;;37.30;52.10;;;;;;5087887;28;20209;-66
2022/08/28 03:13:20;;;;;;;13.85;2.40;;;37.30;52.60;;;;;;5106332;27;20104;-63
2022/08/28 03:15:47;;;;;;;18.10;3.03;;;37.30;52.40;;;;;;5104336;28;20075;-62
2022/08/28 03:18:16;;;;;;;24.85;3.83;;;37.20;52.60;;;;;;5088421;28;20605;-64
2022/08/28 03:20:43;;;;;;;17.83;4.45;;;37.10;52.70;;;;;;5090559;28;20082;-63
2022/08/28 03:23:25;;;;;;;25.50;4.00;;;37.10;53.30;;;;;;5087656;28;20114;-63
2022/08/28 03:26:07;;;;;;;17.13;3.28;;;37.10;53.30;;;;;;5087199;28;20502;-63
2022/08/28 03:28:43;;;;;;;15.32;3.38;;;37.00;53.40;;;;;;5105580;28;20075;-66
2022/08/28 03:31:12;;;;;;;22.35;4.93;;;37.00;53.40;;;;;;5104294;28;20085;-63
2022/08/28 03:33:40;;;;;;;32.25;6.45;;;37.00;53.90;;;;;;5107246;27;20114;-64
2022/08/28 03:36:08;;;;;;;26.67;7.25;;;36.90;54.70;;;;;;5069208;28;20082;-65
2022/08/28 03:38:34;;;;;;;32.25;7.70;;;36.90;54.20;;;;;;5089398;28;20078;-66
2022/08/28 03:41:01;;;;;;;28.42;7.90;;;36.80;55.40;;;;;;5106680;28;20117;-65
2022/08/28 03:43:28;;;;;;;25.80;8.02;;;36.70;55.10;;;;;;5087398;28;20090;-64
2022/08/28 03:46:01;;;;;;;27.38;6.88;;;36.70;55.50;;;;;;5106646;28;20524;-67
2022/08/28 03:48:31;;;;;;;27.65;6.80;;;36.60;55.20;;;;;;5089026;28;20107;-63
2022/08/28 03:50:59;;;;;;;31.80;7.13;;;36.60;54.90;;;;;;5089501;28;20062;-63
2022/08/28 03:53:28;;;;;;;29.55;6.28;;;36.60;55.40;;;;;;5070922;28;20523;-68
2022/08/28 03:55:56;;;;;;;21.55;5.60;;;36.60;55.10;;;;;;5106484;27;20506;-66
2022/08/28 03:58:23;;;;;;;23.73;5.53;;;36.50;55.80;;;;;;5107652;28;20087;-65
2022/08/28 04:00:49;;;;;;;22.05;4.80;;;36.50;56.10;;;;;;5107607;27;20071;-63
2022/08/28 04:03:16;;;;;;;20.48;5.15;;;36.40;56.20;;;;;;5073340;28;20079;-65
2022/08/28 04:05:45;;;;;;;19.92;5.18;;;36.40;56.70;;;;;;5087174;28;20159;-66
2022/08/28 04:08:14;;;;;;;25.25;5.70;;;36.30;57.40;;;;;;5087218;28;20445;-64
2022/08/28 04:10:42;;;;;;;21.90;5.15;;;36.20;57.70;;;;;;5105835;28;20055;-63
2022/08/28 04:13:10;;;;;;;20.33;5.18;;;36.20;58.20;;;;;;5085776;28;20093;-63
2022/08/28 04:15:36;;;;;;;31.52;5.40;;;36.10;58.80;;;;;;5087675;28;20087;-65
2022/08/28 04:18:03;;;;;;;19.75;5.60;;;36.00;58.80;;;;;;5105778;28;20128;-63
2022/08/28 04:20:29;;;;;;;25.52;6.72;;;35.90;60.00;;;;;;5086597;28;20128;-63
2022/08/28 04:22:56;;;;;;;28.20;6.13;;;35.80;62.40;;;;;;5089408;28;20178;-62
2022/08/28 04:25:23;;;;;;;24.92;6.38;;;35.80;61.90;;;;;;5088304;28;20106;-63
2022/08/28 04:27:50;;;;;;;27.33;7.00;;;35.70;60.00;;;;;;5089116;28;20117;-61
2022/08/28 04:30:17;;;;;;;23.58;5.50;;;35.70;62.20;;;;;;5104655;28;20129;-64
2022/08/28 04:32:47;;;;;;;15.85;4.95;;;35.80;59.00;;;;;;5085537;28;20461;-66
2022/08/28 04:35:14;;;;;;;40.72;5.70;;;35.80;58.90;;;;;;5086408;28;20076;-63
2022/08/28 04:37:42;;;;;;;15.40;4.10;;;35.70;59.00;;;;;;5106275;28;20159;-66
2022/08/28 04:40:11;;;;;;;14.98;4.07;;;35.70;60.10;;;;;;5087041;28;20095;-65
2022/08/28 04:42:39;;;;;;;25.08;5.70;;;35.60;61.50;;;;;;5087532;28;20091;-66
2022/08/28 04:45:06;;;;;;;24.20;4.82;;;35.60;61.80;;;;;;5087063;28;20154;-68
2022/08/28 04:47:37;;;;;;;26.63;5.03;;;35.60;59.50;;;;;;5085339;28;20083;-64
2022/08/28 04:50:05;;;;;;;24.40;5.68;;;35.60;59.80;;;;;;5068820;28;20067;-65
2022/08/28 04:52:32;;;;;;;26.63;5.22;;;35.60;61.70;;;;;;5084304;28;20095;-67
2022/08/28 04:54:58;;;;;;;16.10;5.03;;;35.50;62.10;;;;;;5066557;28;21919;-65
2022/08/28 04:57:25;;;;;;;17.02;3.92;;;35.50;62.00;;;;;;5085782;28;20066;-68
2022/08/28 04:59:51;;;;;;;13.82;2.88;;;35.40;55.80;;;;;;5087410;28;20769;-63
2022/08/28 05:02:17;;;;;;;14.50;2.58;;;35.20;50.00;;;;;;5105697;28;20136;-62
2022/08/28 05:04:44;;;;;;;13.27;2.78;;;;;;;;;;5106960;28;21499;-63
2022/08/28 05:07:10;;;;;;;11.93;2.55;;;;;;;;;;5122179;28;20020;-62
2022/08/28 05:09:37;;;;;;;10.80;2.28;;;34.90;67.90;;;;;;5093077;27;20394;-63
2022/08/28 05:12:05;;;;;;;28.50;3.00;;;35.60;90.40;;;;;;5093124;28;20030;-63
2022/08/28 05:18:29;;;;;;;14.73;3.10;;;;;;;;;;5088120;27;20402;-63
2022/08/28 05:20:56;;;;;;;14.90;2.50;;;;;;;;;;5066931;28;20024;-67
2022/08/28 05:23:22;;;;;;;12.38;2.63;;;35.30;76.00;;;;;;5068158;28;20064;-65
2022/08/28 05:25:49;;;;;;;12.55;2.30;;;;;;;;;;5065641;28;20085;-64
2022/08/28 05:28:16;;;;;;;15.95;2.45;;;34.40;70.20;;;;;;5063363;28;20028;-64
2022/08/28 05:30:43;;;;;;;13.50;2.35;;;35.10;64.10;;;;;;5065764;28;20025;-64
2022/08/28 05:33:10;;;;;;;15.52;2.78;;;;;;;;;;5064678;28;20024;-61
2022/08/28 05:35:38;;;;;;;17.20;2.58;;;;;;;;;;5049667;28;20035;-62
2022/08/28 05:38:05;;;;;;;12.85;3.67;;;35.10;63.80;;;;;;5064329;28;20028;-64
2022/08/28 05:40:32;;;;;;;16.90;4.03;;;;;;;;;;5062430;28;20155;-64
2022/08/28 05:42:58;;;;;;;18.02;3.75;;;;;;;;;;5062082;28;20498;-64
2022/08/28 05:45:25;;;;;;;10.52;3.60;;;35.30;69.60;;;;;;5064423;28;20042;-69
2022/08/28 05:47:51;;;;;;;13.50;3.17;;;35.00;78.60;;;;;;5066313;28;20116;-64
